Terminal Aerodrome Forecast
Issued by NWS

Home | Current Version | Previous Version | Text Only | Print | Product List | Glossary On
Versions: 1 2 3 4 5 6 7 8 9 10 11 12 13 14 15 16
000
FTUS45 KVEF 232300
TAFBIH
TAF
KBIH 232320Z 2400/2424 35010KT P6SM BKN200
     FM240600 24005KT P6SM SCT250
     FM241800 35012G18KT P6SM FEW250=

USA.gov is the U.S. government's official web portal to all federal, state and local government web resources and services.